Terminal Aerodrome Forecast
Issued by NWS

Home | Current Version | Previous Version | Text Only | Print | Product List | Glossary On
Versions: 1 2 3 4 5 6 7 8 9 10 11 12 13 14 15 16 17 18 19 20 21 22 23 24 25 26 27 28 29 30 31
000
FTUS43 KMKX 310520
TAFUES
TAF
KUES 310520Z 3106/0106 30004KT P6SM SCT035 SCT250
     FM310700 01008G15KT P6SM SCT008 SCT025 BKN180
     FM310830 02008KT P6SM SCT030 SCT150
     FM311500 02010KT P6SM SCT050 SCT250
     FM010100 01007KT P6SM SKC=

USA.gov is the U.S. government's official web portal to all federal, state and local government web resources and services.